Time;durP1;ratioP1;P1;durP2;ratioP2;P2;SDS_P1;SDS_P2;PMS_P1;PMS_P2;Temp;Humidity;BMP_temperature;BMP_pressure;BME280_temperature;BME280_humidity;BME280_pressure;Samples;Min_cycle;Max_cycle;Signal;HPM_P1;HPM_P2
2022/07/01 00:01:27;;;;;;;1.90;1.70;;;;;;;;;;4993212;28;20133;-78
2022/07/01 00:03:53;;;;;;;2.17;1.52;;;;;;;;;;4977309;28;20030;-78
2022/07/01 00:06:18;;;;;;;1.33;1.23;;;;;;;;;;4994406;28;20056;-80
2022/07/01 00:08:43;;;;;;;1.95;1.20;;;;;;;;;;4994594;28;20460;-78
2022/07/01 00:11:09;;;;;;;1.67;1.40;;;;;;;;;;4993487;28;20023;-78
2022/07/01 00:13:35;;;;;;;1.77;1.60;;;;;;;;;;4993211;28;20393;-78
2022/07/01 00:16:00;;;;;;;2.13;1.90;;;;;;;;;;4992994;28;20038;-78
2022/07/01 00:18:25;;;;;;;1.73;1.60;;;;;;;;;;4976558;28;20034;-77
2022/07/01 00:20:51;;;;;;;2.42;1.95;;;;;;;;;;4992825;28;20035;-78
2022/07/01 00:23:17;;;;;;;3.72;1.83;;;;;;;;;;4992651;28;20041;-78
2022/07/01 00:25:44;;;;;;;2.58;1.80;;;;;;;;;;4992455;28;20157;-78
2022/07/01 00:28:09;;;;;;;1.50;1.40;;;;;;;;;;4992652;28;20121;-78
2022/07/01 00:30:35;;;;;;;2.22;1.60;;;;;;;;;;4992399;28;20193;-77
2022/07/01 00:33:00;;;;;;;2.55;1.90;;;;;;;;;;4993110;28;20492;-78
2022/07/01 00:35:25;;;;;;;2.00;1.85;;;;;;;;;;4993166;28;20038;-77
2022/07/01 00:37:51;;;;;;;15.73;3.15;;;;;;;;;;4976179;28;20117;-78
2022/07/01 00:40:16;;;;;;;4.05;2.00;;;;;;;;;;4994180;28;20030;-78
2022/07/01 00:42:43;;;;;;;0.90;0.90;;;;;;;;;;4992877;28;20470;-80
2022/07/01 00:45:10;;;;;;;1.48;0.90;;;;;;;;;;4992500;28;20100;-79
2022/07/01 00:47:36;;;;;;;1.45;1.00;;;;;;;;;;4992521;28;20056;-79
2022/07/01 00:50:06;;;;;;;1.50;1.40;;;;;;;;;;4976206;28;20026;-79
2022/07/01 00:52:32;;;;;;;1.10;1.00;;;;;;;;;;4992561;28;20362;-79
2022/07/01 00:54:57;;;;;;;1.10;1.00;;;;;;;;;;4992428;28;20080;-79
2022/07/01 00:57:23;;;;;;;1.25;0.90;;;;;;;;;;4992103;28;20030;-79
2022/07/01 00:59:48;;;;;;;4.43;1.42;;;;;;;;;;4959972;28;20116;-78
2022/07/01 01:02:14;;;;;;;2.15;1.65;;;;;;;;;;4975881;28;20026;-79
2022/07/01 01:04:39;;;;;;;0.80;0.80;;;;;;;;;;4992399;28;20088;-78
2022/07/01 01:07:04;;;;;;;1.27;0.90;;;;;;;;;;4993320;28;20518;-78
2022/07/01 01:09:31;;;;;;;0.82;0.82;;;;;;;;;;4992360;28;20051;-79
2022/07/01 01:11:57;;;;;;;3.13;1.02;;;;;;;;;;4992435;28;20072;-78
2022/07/01 01:14:23;;;;;;;1.00;1.00;;;;;;;;;;4992193;28;20453;-79
2022/07/01 01:16:48;;;;;;;0.70;0.70;;;;;;;;;;4993293;28;20039;-78
2022/07/01 01:19:14;;;;;;;1.30;1.02;;;;;;;;;;4993125;28;20050;-78
2022/07/01 01:21:39;;;;;;;1.15;0.88;;;;;;;;;;4993332;28;20030;-78
2022/07/01 01:24:05;;;;;;;1.30;0.80;;;;;;;;;;4975614;28;20062;-78
2022/07/01 01:26:31;;;;;;;2.25;0.80;;;;;;;;;;4991964;28;20023;-79
2022/07/01 01:28:57;;;;;;;0.82;0.82;;;;;;;;;;4991691;28;20030;-79
2022/07/01 01:31:30;;;;;;;0.82;0.73;;;;;;;;;;4993101;28;20113;-78
2022/07/01 01:33:55;;;;;;;0.70;0.70;;;;;;;;;;4992908;28;20034;-79
2022/07/01 01:36:21;;;;;;;1.48;1.17;;;;;;;;;;4991579;28;20496;-79
2022/07/01 01:38:46;;;;;;;0.95;0.90;;;;;;;;;;4991688;28;20385;-79
2022/07/01 01:41:12;;;;;;;0.93;0.93;;;;;;;;;;4992042;28;20034;-79
2022/07/01 01:43:37;;;;;;;0.77;0.77;;;;;;;;;;4975192;28;20033;-79
2022/07/01 01:46:03;;;;;;;0.93;0.73;;;;;;;;;;4992796;28;20061;-79
2022/07/01 01:48:30;;;;;;;1.83;0.77;;;;;;;;;;4991772;28;20030;-79
2022/07/01 01:50:56;;;;;;;0.70;0.70;;;;;;;;;;4993152;28;20026;-79
2022/07/01 01:53:21;;;;;;;0.70;0.70;;;;;;;;;;4991970;28;20096;-79
2022/07/01 01:55:46;;;;;;;1.00;0.90;;;;;;;;;;4991607;28;20086;-79
2022/07/01 01:58:12;;;;;;;2.03;0.77;;;;;;;;;;4975377;28;20031;-79
2022/07/01 02:00:37;;;;;;;1.38;1.00;;;;;;;;;;4991970;28;20473;-79
2022/07/01 02:03:03;;;;;;;1.35;1.20;;;;;;;;;;4992715;28;20026;-79
2022/07/01 02:05:28;;;;;;;1.17;1.08;;;;;;;;;;4992607;28;20037;-79
2022/07/01 02:07:53;;;;;;;0.90;0.90;;;;;;;;;;4975156;28;20096;-79
2022/07/01 02:10:20;;;;;;;0.95;0.95;;;;;;;;;;4991274;28;20045;-78
2022/07/01 02:12:47;;;;;;;1.02;0.95;;;;;;;;;;4993038;28;20426;-79
2022/07/01 02:15:12;;;;;;;1.58;1.45;;;;;;;;;;4991543;28;20121;-79
2022/07/01 02:17:37;;;;;;;1.27;1.17;;;;;;;;;;4991119;28;20085;-78
2022/07/01 02:20:04;;;;;;;1.80;1.40;;;;;;;;;;4975233;28;20035;-79
2022/07/01 02:22:29;;;;;;;2.10;1.65;;;;;;;;;;4991408;28;20030;-79
2022/07/01 02:24:54;;;;;;;1.65;1.55;;;;;;;;;;4991245;28;20031;-79
2022/07/01 02:27:20;;;;;;;2.75;2.22;;;;;;;;;;4975118;28;20105;-79
2022/07/01 02:29:45;;;;;;;1.92;1.45;;;;;;;;;;4975112;28;20370;-79
2022/07/01 02:32:10;;;;;;;2.65;1.60;;;;;;;;;;4992478;28;20057;-79
2022/07/01 02:34:36;;;;;;;2.58;1.27;;;;;;;;;;4991223;28;20393;-79
2022/07/01 02:37:01;;;;;;;1.30;1.20;;;;;;;;;;4974887;28;20042;-78
2022/07/01 02:39:27;;;;;;;1.73;1.25;;;;;;;;;;4992335;28;20026;-79
2022/07/01 02:44:36;;;;;;;1.75;1.42;;;;;;;;;;4991155;28;20093;-78
2022/07/01 02:47:02;;;;;;;2.35;1.80;;;;;;;;;;4992664;28;20440;-78
2022/07/01 02:49:27;;;;;;;1.73;1.23;;;;;;;;;;4992523;28;20384;-79
2022/07/01 02:51:52;;;;;;;2.30;1.75;;;;;;;;;;4992254;28;20037;-78
2022/07/01 02:54:18;;;;;;;1.40;1.23;;;;;;;;;;4994345;28;20117;-79
2022/07/01 02:56:43;;;;;;;4.60;1.30;;;;;;;;;;4995992;28;20503;-79
2022/07/01 02:59:08;;;;;;;2.22;1.55;;;;;;;;;;4994617;28;20037;-79
2022/07/01 03:01:34;;;;;;;2.08;1.98;;;;;;;;;;4994996;28;20035;-78
2022/07/01 03:03:59;;;;;;;1.40;1.30;;;;;;;;;;4994787;28;20112;-79
2022/07/01 03:06:25;;;;;;;1.75;1.65;;;;;;;;;;4995668;28;20036;-79
2022/07/01 03:08:51;;;;;;;1.67;1.58;;;;;;;;;;4994442;28;20101;-79
2022/07/01 03:11:16;;;;;;;2.92;1.83;;;;;;;;;;4994763;28;20026;-79
2022/07/01 03:13:41;;;;;;;2.33;2.00;;;;;;;;;;4978040;28;20035;-79
2022/07/01 03:16:07;;;;;;;2.22;1.73;;;;;;;;;;4995499;28;20329;-79
2022/07/01 03:18:32;;;;;;;2.55;2.22;;;;;;;;;;4995356;28;20066;-78
2022/07/01 03:20:57;;;;;;;1.90;1.60;;;;;;;;;;4994439;28;20042;-79
2022/07/01 03:23:23;;;;;;;1.80;1.67;;;;;;;;;;4995129;28;20104;-79
2022/07/01 03:25:48;;;;;;;1.92;1.83;;;;;;;;;;4994128;28;20081;-79
2022/07/01 03:28:14;;;;;;;1.80;1.60;;;;;;;;;;4977946;28;20444;-78
2022/07/01 03:30:39;;;;;;;3.67;1.70;;;;;;;;;;4993738;28;20026;-79
2022/07/01 03:33:05;;;;;;;2.50;2.30;;;;;;;;;;4995287;28;20034;-79
2022/07/01 03:35:36;;;;;;;1.70;1.60;;;;;;;;;;4995291;28;20433;-78
2022/07/01 03:38:03;;;;;;;2.15;1.90;;;;;;;;;;4993551;28;20408;-79
2022/07/01 03:40:29;;;;;;;2.00;1.80;;;;;;;;;;4995104;28;20027;-79
2022/07/01 03:42:55;;;;;;;2.42;2.00;;;;;;;;;;4977786;28;20381;-79
2022/07/01 03:45:20;;;;;;;1.75;1.60;;;;;;;;;;4977365;28;20054;-79
2022/07/01 03:47:49;;;;;;;2.95;2.45;;;;;;;;;;4977311;28;20030;-79
2022/07/01 03:50:16;;;;;;;4.57;3.58;;;;;;;;;;4993699;28;20470;-79
2022/07/01 03:52:42;;;;;;;4.57;3.15;;;;;;;;;;4993552;28;20031;-79
2022/07/01 03:55:09;;;;;;;2.78;2.28;;;;;;;;;;4977130;28;20160;-79
2022/07/01 03:57:34;;;;;;;2.22;1.92;;;;;;;;;;4994649;28;20041;-79
2022/07/01 03:59:59;;;;;;;3.70;3.35;;;;;;;;;;4993421;28;20498;-79
2022/07/01 04:02:25;;;;;;;3.45;2.55;;;;;;;;;;4993330;28;20053;-79
2022/07/01 04:04:50;;;;;;;5.15;2.92;;;;;;;;;;4993984;28;20061;-78
2022/07/01 04:07:15;;;;;;;5.05;4.07;;;;;;;;;;4993302;28;20446;-78
2022/07/01 04:09:41;;;;;;;4.10;3.60;;;;;;;;;;4960935;28;20117;-78
2022/07/01 04:12:09;;;;;;;4.35;2.10;;;;;;;;;;4993097;28;20033;-79
2022/07/01 04:14:34;;;;;;;3.28;2.58;;;;;;;;;;4993441;28;20046;-78
2022/07/01 04:17:00;;;;;;;4.18;2.63;;;;;;;;;;4994549;28;20034;-80
2022/07/01 04:19:25;;;;;;;4.15;2.58;;;;;;;;;;4993122;28;20050;-80
2022/07/01 04:24:35;;;;;;;;;;;;;;;;;;4994354;28;20037;-83
2022/07/01 04:27:00;;;;;;;6.05;2.65;;;;;;;;;;4994197;28;19913;-83
2022/07/01 04:29:28;;;;;;;5.47;2.58;;;;;;;;;;4993962;28;20112;-82
2022/07/01 04:31:54;;;;;;;5.68;4.03;;;;;;;;;;4993316;28;20088;-81
2022/07/01 04:34:19;;;;;;;8.93;4.28;;;;;;;;;;4993850;28;20034;-80
2022/07/01 04:36:45;;;;;;;6.32;4.18;;;;;;;;;;4993800;28;20029;-81
2022/07/01 04:39:10;;;;;;;9.02;3.63;;;;;;;;;;4977693;28;20030;-82
2022/07/01 04:44:19;;;;;;;;;;;;;;;;;;4994739;28;20041;-81
2022/07/01 04:46:45;;;;;;;6.03;3.93;;;;;;;;;;4994829;28;19921;-80
2022/07/01 04:49:10;;;;;;;6.75;3.85;;;;;;;;;;4993783;28;20355;-85
2022/07/01 04:51:36;;;;;;;8.88;5.72;;;;;;;;;;4961346;28;20034;-80
2022/07/01 04:54:02;;;;;;;5.10;3.55;;;;;;;;;;4994122;28;20035;-84
2022/07/01 04:56:28;;;;;;;26.15;7.97;;;;;;;;;;4993509;28;20030;-83
2022/07/01 04:58:55;;;;;;;33.80;10.23;;;;;;;;;;4995008;28;20030;-83
2022/07/01 05:01:20;;;;;;;30.77;8.68;;;;;;;;;;4993412;28;20034;-83
2022/07/01 05:03:45;;;;;;;22.88;7.68;;;;;;;;;;4993400;28;20029;-82
2022/07/01 05:06:11;;;;;;;17.83;8.63;;;;;;;;;;4977302;28;20105;-84
2022/07/01 05:08:36;;;;;;;27.00;8.13;;;;;;;;;;4994955;28;20088;-81
2022/07/01 05:11:01;;;;;;;18.58;7.50;;;;;;;;;;4977095;28;20497;-81
2022/07/01 05:13:27;;;;;;;20.67;7.35;;;;;;;;;;4994893;28;20041;-81
2022/07/01 05:15:53;;;;;;;19.05;6.45;;;;;;;;;;4994507;28;20084;-81
2022/07/01 05:23:45;;;;;;;;;;;;;;;;;;4996307;28;20041;-80
2022/07/01 05:26:16;;;;;;;13.37;6.13;;;;;;;;;;4979431;28;19910;-83
2022/07/01 05:28:42;;;;;;;14.45;6.20;;;;;;;;;;4980046;28;20334;-81
2022/07/01 05:31:07;;;;;;;13.38;6.90;;;;;;;;;;4995392;28;20038;-81
2022/07/01 05:33:32;;;;;;;12.90;7.25;;;;;;;;;;4979050;28;20049;-82
2022/07/01 05:35:58;;;;;;;12.73;6.55;;;;;;;;;;4996572;28;20045;-82
2022/07/01 05:38:24;;;;;;;14.43;5.35;;;;;;;;;;4996689;28;20035;-81
2022/07/01 05:40:49;;;;;;;12.82;6.30;;;;;;;;;;4977488;28;20473;-82
2022/07/01 05:43:14;;;;;;;11.40;5.25;;;;;;;;;;4977928;28;20034;-81
2022/07/01 05:45:40;;;;;;;11.43;6.28;;;;;;;;;;4994687;28;20054;-81
2022/07/01 05:48:06;;;;;;;11.77;6.82;;;;;;;;;;4994751;28;20113;-81
2022/07/01 05:50:31;;;;;;;12.48;6.63;;;;;;;;;;4994793;28;20030;-81
2022/07/01 05:52:57;;;;;;;10.13;6.78;;;;;;;;;;4978631;28;20061;-81
2022/07/01 05:55:22;;;;;;;8.45;6.00;;;;;;;;;;4978572;28;20401;-82
2022/07/01 05:57:48;;;;;;;10.45;5.30;;;;;;;;;;4994167;28;20077;-81
2022/07/01 06:00:14;;;;;;;8.15;4.97;;;;;;;;;;4994753;28;20481;-81
2022/07/01 06:02:39;;;;;;;9.18;5.18;;;;;;;;;;4994161;28;20098;-81
2022/07/01 06:05:05;;;;;;;6.60;4.45;;;;;;;;;;4995310;28;20116;-81
2022/07/01 06:07:31;;;;;;;8.32;5.90;;;;;;;;;;4995248;28;20034;-82
2022/07/01 06:09:56;;;;;;;7.85;5.57;;;;;;;;;;4994563;28;20030;-81
2022/07/01 06:12:22;;;;;;;10.65;5.55;;;;;;;;;;4994429;28;20492;-82
2022/07/01 06:14:48;;;;;;;7.38;4.65;;;;;;;;;;4961738;28;20030;-82
2022/07/01 06:17:13;;;;;;;7.25;4.57;;;;;;;;;;4978475;28;20022;-81
2022/07/01 06:19:39;;;;;;;7.03;5.28;;;;;;;;;;4995010;28;20044;-81
2022/07/01 06:22:05;;;;;;;6.18;4.35;;;;;;;;;;4978659;28;20440;-82
2022/07/01 06:24:31;;;;;;;9.35;5.78;;;;;;;;;;4995098;28;20488;-83
2022/07/01 06:26:56;;;;;;;7.28;4.30;;;;;;;;;;4977570;28;20026;-82
2022/07/01 06:29:21;;;;;;;7.50;4.30;;;;;;;;;;4979734;28;20038;-82
2022/07/01 06:31:47;;;;;;;6.78;4.38;;;;;;;;;;4996175;28;20460;-82
2022/07/01 06:34:12;;;;;;;13.43;4.60;;;;;;;;;;4980219;28;20083;-82
2022/07/01 06:36:38;;;;;;;5.90;4.20;;;;;;;;;;4997599;28;20496;-82
2022/07/01 06:39:03;;;;;;;8.05;4.40;;;;;;;;;;4979913;28;20034;-81
2022/07/01 06:41:28;;;;;;;5.95;4.18;;;;;;;;;;4997268;28;20504;-82
2022/07/01 06:43:58;;;;;;;6.43;4.28;;;;;;;;;;4995870;28;20034;-82
2022/07/01 06:46:24;;;;;;;6.95;5.32;;;;;;;;;;4995772;28;20126;-82
2022/07/01 06:48:50;;;;;;;7.35;3.78;;;;;;;;;;4996222;28;20181;-82
2022/07/01 06:51:15;;;;;;;5.45;4.22;;;;;;;;;;4997113;28;20113;-82
2022/07/01 06:53:41;;;;;;;5.13;4.13;;;;;;;;;;4997550;28;20030;-82
2022/07/01 06:56:07;;;;;;;8.20;4.10;;;;;;;;;;4995734;28;20129;-82
2022/07/01 06:58:33;;;;;;;6.10;4.00;;;;;;;;;;4979677;28;20409;-82
2022/07/01 07:00:58;;;;;;;6.32;4.20;;;;;;;;;;4995800;28;20413;-81
2022/07/01 07:03:24;;;;;;;4.50;3.85;;;;;;;;;;4996084;28;20504;-81
2022/07/01 07:05:49;;;;;;;7.82;4.50;;;;;;;;;;4979597;28;20026;-82
2022/07/01 07:08:15;;;;;;;6.10;3.95;;;;;;;;;;4979318;28;20022;-82
2022/07/01 07:10:40;;;;;;;5.95;3.67;;;;;;;;;;4979386;28;20034;-82
2022/07/01 07:13:06;;;;;;;6.10;3.72;;;;;;;;;;4996519;28;20117;-83
2022/07/01 07:15:31;;;;;;;5.18;3.38;;;;;;;;;;4995643;28;20035;-82
2022/07/01 07:17:57;;;;;;;6.57;3.28;;;;;;;;;;4979173;28;20121;-83
2022/07/01 07:20:24;;;;;;;4.45;3.33;;;;;;;;;;4996920;28;20089;-82
2022/07/01 07:22:49;;;;;;;5.10;3.30;;;;;;;;;;4996267;28;20377;-83
2022/07/01 07:25:15;;;;;;;3.80;3.03;;;;;;;;;;4996313;28;20026;-86
2022/07/01 07:27:40;;;;;;;4.88;3.22;;;;;;;;;;4995796;28;20050;-81
2022/07/01 07:30:06;;;;;;;8.07;3.05;;;;;;;;;;4996531;28;20030;-81
2022/07/01 07:32:31;;;;;;;5.30;3.28;;;;;;;;;;4998755;28;20031;-80
2022/07/01 07:34:57;;;;;;;4.70;3.10;;;;;;;;;;4980242;28;20038;-84
2022/07/01 07:37:22;;;;;;;3.78;2.83;;;;;;;;;;4997721;28;20096;-84
2022/07/01 07:39:48;;;;;;;4.80;2.80;;;;;;;;;;4982234;28;20493;-84
2022/07/01 07:42:13;;;;;;;7.35;3.40;;;;;;;;;;4995978;28;20034;-84
2022/07/01 07:44:38;;;;;;;5.05;2.63;;;;;;;;;;4995294;28;20037;-85
2022/07/01 07:47:04;;;;;;;3.65;2.50;;;;;;;;;;4978558;28;20050;-84
2022/07/01 07:49:29;;;;;;;5.43;2.72;;;;;;;;;;5001020;28;20084;-85
2022/07/01 07:51:55;;;;;;;6.40;2.75;;;;;;;;;;5001575;28;20034;-84
2022/07/01 07:54:20;;;;;;;3.90;2.38;;;;;;;;;;4978735;28;20041;-85
2022/07/01 07:56:46;;;;;;;4.90;2.53;;;;;;;;;;4978888;28;20092;-84
2022/07/01 07:59:12;;;;;;;2.70;2.20;;;;;;;;;;4978578;28;20121;-84
2022/07/01 08:01:37;;;;;;;2.78;2.03;;;;;;;;;;4995156;28;20489;-83
2022/07/01 08:04:03;;;;;;;5.72;2.47;;;;;;;;;;4994756;28;20026;-84
2022/07/01 08:06:28;;;;;;;6.88;2.20;;;;;;;;;;4994788;28;20046;-84
2022/07/01 08:08:54;;;;;;;7.32;2.30;;;;;;;;;;4994721;28;20158;-84
2022/07/01 08:11:20;;;;;;;5.18;2.03;;;;;;;;;;4994827;28;20034;-82
2022/07/01 08:13:45;;;;;;;2.45;1.73;;;;;;;;;;4978608;28;20030;-82
2022/07/01 08:16:11;;;;;;;4.68;1.77;;;;;;;;;;4995092;28;20031;-82
2022/07/01 08:18:36;;;;;;;3.25;1.90;;;;;;;;;;4978192;28;20031;-82
2022/07/01 08:21:02;;;;;;;3.83;1.58;;;;;;;;;;4994022;28;20370;-82
2022/07/01 08:23:27;;;;;;;5.45;1.67;;;;;;;;;;4978196;28;20436;-84
2022/07/01 08:25:53;;;;;;;4.50;1.50;;;;;;;;;;4977875;28;20452;-84
2022/07/01 08:28:18;;;;;;;3.15;1.83;;;;;;;;;;4994466;28;20030;-84
2022/07/01 08:30:44;;;;;;;2.42;1.40;;;;;;;;;;4977780;28;20576;-84
2022/07/01 08:33:10;;;;;;;3.33;1.75;;;;;;;;;;4977559;28;20037;-83
2022/07/01 08:35:36;;;;;;;4.35;1.73;;;;;;;;;;4993766;28;20068;-81
2022/07/01 08:38:02;;;;;;;3.20;1.70;;;;;;;;;;4993974;28;20076;-82
2022/07/01 08:40:30;;;;;;;4.13;1.65;;;;;;;;;;4995150;28;20065;-81
2022/07/01 08:42:59;;;;;;;2.40;1.50;;;;;;;;;;4993674;28;20019;-83
2022/07/01 08:45:26;;;;;;;5.03;1.50;;;;;;;;;;4993787;28;20066;-81
2022/07/01 08:47:54;;;;;;;8.77;1.73;;;;;;;;;;4994694;28;20026;-84
2022/07/01 08:50:20;;;;;;;4.05;1.38;;;;;;;;;;4994776;28;20026;-83
2022/07/01 08:52:45;;;;;;;6.28;1.50;;;;;;;;;;4977314;28;20037;-84
2022/07/01 08:55:10;;;;;;;5.15;1.80;;;;;;;;;;4994301;28;20042;-83
2022/07/01 08:57:36;;;;;;;5.35;1.52;;;;;;;;;;4993575;28;20117;-84
2022/07/01 09:00:07;;;;;;;5.38;1.48;;;;;;;;;;4994280;28;20030;-84
2022/07/01 09:02:53;;;;;;;4.22;1.30;;;;;;;;;;4993525;28;20084;-84
2022/07/01 09:05:19;;;;;;;2.97;1.30;;;;;;;;;;4994130;28;20053;-84
2022/07/01 09:07:46;;;;;;;3.55;1.60;;;;;;;;;;4993587;28;20417;-83
2022/07/01 09:10:13;;;;;;;2.33;1.40;;;;;;;;;;4993969;28;20098;-83
2022/07/01 09:12:42;;;;;;;2.83;1.42;;;;;;;;;;4994543;28;20331;-85
2022/07/01 09:15:21;;;;;;;1.95;1.20;;;;;;;;;;4983325;28;20093;-84
2022/07/01 09:17:46;;;;;;;4.63;1.70;;;;;;;;;;4995117;28;20018;-83
2022/07/01 09:20:33;;;;;;;3.17;1.30;;;;;;;;;;4994665;28;20031;-83
2022/07/01 09:23:00;;;;;;;2.22;1.17;;;;;;;;;;4995213;28;20113;-82
2022/07/01 09:25:37;;;;;;;3.97;1.70;;;;;;;;;;4993888;28;20089;-85
2022/07/01 09:28:13;;;;;;;4.10;1.20;;;;;;;;;;4994056;28;20105;-83
2022/07/01 09:30:45;;;;;;;3.80;1.27;;;;;;;;;;4979166;28;20088;-83
2022/07/01 09:33:12;;;;;;;4.40;1.10;;;;;;;;;;4993426;28;20057;-82
2022/07/01 09:35:38;;;;;;;3.28;1.52;;;;;;;;;;4993253;28;20119;-84
2022/07/01 09:38:05;;;;;;;4.43;1.20;;;;;;;;;;4993453;28;20026;-83
2022/07/01 09:40:53;;;;;;;4.13;1.20;;;;;;;;;;4993884;28;20038;-90
2022/07/01 09:43:26;;;;;;;6.15;1.35;;;;;;;;;;4992887;28;20462;-84
2022/07/01 09:45:54;;;;;;;3.35;1.15;;;;;;;;;;4992720;28;20409;-84
2022/07/01 09:48:20;;;;;;;6.28;1.73;;;;;;;;;;4993351;28;20024;-86
2022/07/01 09:50:46;;;;;;;8.05;1.50;;;;;;;;;;4976891;28;20026;-84
2022/07/01 09:53:12;;;;;;;3.75;1.30;;;;;;;;;;4993111;28;20049;-84
2022/07/01 09:55:39;;;;;;;6.13;1.75;;;;;;;;;;4993201;28;20034;-84
2022/07/01 09:58:05;;;;;;;1.70;1.10;;;;;;;;;;4994539;28;20026;-85
2022/07/01 10:00:34;;;;;;;4.18;1.48;;;;;;;;;;4978098;28;20030;-85
2022/07/01 10:03:04;;;;;;;7.07;1.60;;;;;;;;;;4995732;28;20027;-85
2022/07/01 10:05:31;;;;;;;3.50;1.20;;;;;;;;;;5000340;28;20030;-85
2022/07/01 10:08:12;;;;;;;2.85;1.02;;;;;;;;;;4999432;28;20057;-86
2022/07/01 10:10:51;;;;;;;2.97;1.20;;;;;;;;;;4983702;28;20458;-86
2022/07/01 10:13:18;;;;;;;3.00;1.10;;;;;;;;;;5000877;28;20424;-86
2022/07/01 10:15:48;;;;;;;4.35;1.30;;;;;;;;;;5001882;28;20034;-86
2022/07/01 10:18:39;;;;;;;2.35;1.00;;;;;;;;;;5004377;28;20041;-85
2022/07/01 10:21:05;;;;;;;2.35;1.00;;;;;;;;;;4980484;28;20547;-85
2022/07/01 10:23:42;;;;;;;1.83;0.93;;;;;;;;;;4997845;28;20038;-85
2022/07/01 10:26:08;;;;;;;3.45;1.40;;;;;;;;;;4997564;28;20026;-84
2022/07/01 10:28:49;;;;;;;4.07;0.95;;;;;;;;;;4998754;28;20543;-85
2022/07/01 10:31:18;;;;;;;3.10;1.10;;;;;;;;;;4998162;28;20093;-85
2022/07/01 10:33:45;;;;;;;1.88;0.90;;;;;;;;;;4997268;28;20064;-85
2022/07/01 10:36:23;;;;;;;1.95;0.93;;;;;;;;;;5005453;28;20522;-84
2022/07/01 10:39:06;;;;;;;2.85;1.00;;;;;;;;;;5015909;28;20018;-85
2022/07/01 10:41:32;;;;;;;2.13;0.90;;;;;;;;;;5016107;28;20026;-85
2022/07/01 10:44:01;;;;;;;1.30;0.60;;;;;;;;;;5004810;28;20038;-83
2022/07/01 10:46:45;;;;;;;3.13;1.00;;;;;;;;;;4967731;28;20066;-84
2022/07/01 10:49:18;;;;;;;3.22;0.70;;;;;;;;;;5002913;28;20026;-83
2022/07/01 10:51:55;;;;;;;2.40;1.00;;;;;;;;;;5000976;28;20034;-83
2022/07/01 10:54:36;;;;;;;2.95;1.00;;;;;;;;;;5000096;28;20035;-83
2022/07/01 10:57:19;;;;;;;3.90;0.95;;;;;;;;;;4998536;28;20031;-84
2022/07/01 11:00:00;;;;;;;1.55;0.70;;;;;;;;;;4996018;28;20100;-83
2022/07/01 11:02:31;;;;;;;1.85;0.80;;;;;;;;;;4998037;28;20023;-82
2022/07/01 11:04:58;;;;;;;1.17;0.70;;;;;;;;;;4996185;28;20081;-82
2022/07/01 11:07:25;;;;;;;0.88;0.60;;;;;;;;;;4979413;28;20077;-82
2022/07/01 11:09:51;;;;;;;1.95;0.57;;;;;;;;;;4995637;28;20046;-84
2022/07/01 11:12:17;;;;;;;2.17;0.80;;;;;;;;;;4979605;28;20039;-83
2022/07/01 11:14:43;;;;;;;4.63;0.90;;;;;;;;;;4979410;28;20374;-83
2022/07/01 11:17:09;;;;;;;2.10;0.80;;;;;;;;;;4979881;28;20041;-81
2022/07/01 11:19:34;;;;;;;2.17;0.90;;;;;;;;;;4997316;28;20034;-82
2022/07/01 11:22:02;;;;;;;1.77;0.85;;;;;;;;;;4979149;28;20029;-83
2022/07/01 11:24:28;;;;;;;3.30;1.00;;;;;;;;;;4995765;28;20022;-83
2022/07/01 11:27:06;;;;;;;1.13;0.60;;;;;;;;;;4995187;28;20037;-84
2022/07/01 11:29:32;;;;;;;9.50;1.08;;;;;;;;;;4979243;28;20037;-83
2022/07/01 11:31:57;;;;;;;2.83;0.70;;;;;;;;;;4995323;28;20038;-82
2022/07/01 11:34:22;;;;;;;2.00;0.90;;;;;;;;;;4996368;28;20393;-82
2022/07/01 11:39:34;;;;;;;5.57;1.02;;;;;;;;;;4995465;28;20045;-80
2022/07/01 11:42:04;;;;;;;2.20;0.85;;;;;;;;;;4994940;28;20576;-84
2022/07/01 11:44:41;;;;;;;2.65;0.93;;;;;;;;;;4996804;28;20488;-84
2022/07/01 11:47:09;;;;;;;9.00;0.88;;;;;;;;;;4995091;28;20034;-85
2022/07/01 11:49:46;;;;;;;1.75;0.75;;;;;;;;;;4978644;28;20045;-83
2022/07/01 11:52:12;;;;;;;1.25;0.80;;;;;;;;;;4995178;28;20442;-80
2022/07/01 11:54:43;;;;;;;1.85;0.80;;;;;;;;;;4978515;28;20120;-81
2022/07/01 11:57:13;;;;;;;3.03;0.80;;;;;;;;;;4996103;28;20034;-81
2022/07/01 11:59:40;;;;;;;4.47;0.98;;;;;;;;;;4994941;28;20038;-80
2022/07/01 12:02:06;;;;;;;1.83;0.90;;;;;;;;;;4994678;28;20485;-80
2022/07/01 12:04:31;;;;;;;1.13;0.70;;;;;;;;;;5002779;28;20030;-79
2022/07/01 12:06:58;;;;;;;1.85;0.90;;;;;;;;;;5006767;28;20098;-80
2022/07/01 12:09:24;;;;;;;1.00;0.60;;;;;;;;;;4995828;28;20034;-80
2022/07/01 12:11:53;;;;;;;1.13;0.68;;;;;;;;;;4994743;28;20110;-80
2022/07/01 12:14:23;;;;;;;2.10;0.70;;;;;;;;;;4994593;28;20045;-80
2022/07/01 12:16:51;;;;;;;0.90;0.60;;;;;;;;;;4994153;28;20018;-80
2022/07/01 12:19:17;;;;;;;1.98;0.93;;;;;;;;;;4994364;28;20038;-80
2022/07/01 12:21:53;;;;;;;2.03;0.80;;;;;;;;;;4995570;28;20034;-80
2022/07/01 12:24:21;;;;;;;2.08;1.05;;;;;;;;;;4995847;28;20091;-82
2022/07/01 12:26:48;;;;;;;1.80;0.73;;;;;;;;;;4994906;28;20113;-82
2022/07/01 12:29:13;;;;;;;3.10;1.20;;;;;;;;;;4995208;28;20025;-80
2022/07/01 12:31:42;;;;;;;2.28;0.80;;;;;;;;;;4977576;28;20030;-79
2022/07/01 12:34:08;;;;;;;1.67;0.73;;;;;;;;;;4994124;28;20033;-80
2022/07/01 12:36:33;;;;;;;1.55;0.77;;;;;;;;;;4993775;28;20477;-80
2022/07/01 12:39:06;;;;;;;2.65;1.20;;;;;;;;;;4993936;28;20034;-80
2022/07/01 12:41:36;;;;;;;0.80;0.60;;;;;;;;;;4993680;28;20029;-80
2022/07/01 12:44:23;;;;;;;2.30;0.80;;;;;;;;;;4977411;28;20038;-80
2022/07/01 12:46:49;;;;;;;1.25;0.70;;;;;;;;;;4994758;28;20042;-80
2022/07/01 12:49:24;;;;;;;1.52;0.95;;;;;;;;;;4993891;28;20034;-80
2022/07/01 12:51:50;;;;;;;2.80;0.80;;;;;;;;;;4993856;28;20030;-83
2022/07/01 12:54:30;;;;;;;2.33;0.70;;;;;;;;;;4994500;28;20030;-82
2022/07/01 12:56:55;;;;;;;5.15;0.80;;;;;;;;;;4977854;28;20476;-83
2022/07/01 12:59:21;;;;;;;3.70;1.00;;;;;;;;;;4994077;28;20050;-83
2022/07/01 13:01:46;;;;;;;3.60;1.10;;;;;;;;;;4994868;28;20061;-81
2022/07/01 13:04:11;;;;;;;1.35;0.80;;;;;;;;;;4961014;28;20034;-82
2022/07/01 13:06:37;;;;;;;1.48;0.90;;;;;;;;;;4977356;28;20469;-81
2022/07/01 13:09:02;;;;;;;3.85;0.93;;;;;;;;;;4977329;28;20042;-80
2022/07/01 13:11:27;;;;;;;2.10;0.80;;;;;;;;;;4993300;28;20552;-80
2022/07/01 13:13:53;;;;;;;2.70;0.80;;;;;;;;;;4993701;28;20038;-81
2022/07/01 13:16:18;;;;;;;1.15;0.80;;;;;;;;;;4994709;28;20034;-82
2022/07/01 13:18:43;;;;;;;0.82;0.60;;;;;;;;;;4993402;28;20049;-81
2022/07/01 13:21:09;;;;;;;2.25;0.73;;;;;;;;;;4994662;28;20026;-79
2022/07/01 13:23:34;;;;;;;1.40;0.70;;;;;;;;;;4977000;28;20026;-80
2022/07/01 13:26:00;;;;;;;1.50;0.70;;;;;;;;;;4997371;28;20386;-81
2022/07/01 13:28:25;;;;;;;0.77;0.57;;;;;;;;;;4994421;28;20030;-79
2022/07/01 13:30:50;;;;;;;1.48;0.82;;;;;;;;;;5002738;28;20045;-81
2022/07/01 13:33:16;;;;;;;1.13;0.57;;;;;;;;;;5006713;28;20492;-81
2022/07/01 13:35:41;;;;;;;1.75;0.85;;;;;;;;;;4994381;28;20081;-80
2022/07/01 13:38:07;;;;;;;2.72;0.73;;;;;;;;;;4976902;28;20081;-80
2022/07/01 13:40:32;;;;;;;1.98;0.70;;;;;;;;;;4993547;28;20026;-81
2022/07/01 13:42:57;;;;;;;2.70;0.73;;;;;;;;;;4993276;28;20494;-80
2022/07/01 13:45:23;;;;;;;5.85;0.88;;;;;;;;;;4994298;28;20030;-81
2022/07/01 13:47:48;;;;;;;2.55;0.93;;;;;;;;;;4994160;28;20058;-80
2022/07/01 13:50:18;;;;;;;4.00;1.38;;;;;;;;;;4993374;28;20099;-80
2022/07/01 13:52:44;;;;;;;2.78;0.90;;;;;;;;;;4992894;28;20439;-80
2022/07/01 13:55:09;;;;;;;4.15;1.00;;;;;;;;;;4976641;28;20121;-81
2022/07/01 13:57:34;;;;;;;1.15;0.90;;;;;;;;;;4977198;28;20034;-81
2022/07/01 14:00:00;;;;;;;3.28;0.80;;;;;;;;;;4976690;28;20069;-81
2022/07/01 14:02:25;;;;;;;2.70;0.80;;;;;;;;;;4993697;28;20133;-81
2022/07/01 14:04:51;;;;;;;4.93;1.00;;;;;;;;;;4994070;28;20030;-80
2022/07/01 14:07:16;;;;;;;1.20;0.75;;;;;;;;;;4992717;28;20500;-80
2022/07/01 14:09:43;;;;;;;2.97;1.00;;;;;;;;;;4976544;28;20110;-81
2022/07/01 14:12:09;;;;;;;1.75;0.80;;;;;;;;;;4993493;28;20053;-81
2022/07/01 14:14:34;;;;;;;8.02;1.00;;;;;;;;;;4992997;28;20034;-81
2022/07/01 14:16:59;;;;;;;2.90;1.15;;;;;;;;;;4976412;28;20034;-81
2022/07/01 14:19:26;;;;;;;3.95;0.93;;;;;;;;;;4976639;28;20450;-81
2022/07/01 14:21:52;;;;;;;4.85;1.00;;;;;;;;;;4993059;28;20030;-80
2022/07/01 14:24:17;;;;;;;3.55;1.10;;;;;;;;;;4992865;28;20532;-80
2022/07/01 14:26:42;;;;;;;4.32;1.30;;;;;;;;;;4993829;28;20034;-80
2022/07/01 14:29:08;;;;;;;4.88;1.13;;;;;;;;;;4976503;28;20031;-80
2022/07/01 14:31:33;;;;;;;1.00;0.90;;;;;;;;;;4976491;28;20045;-80
2022/07/01 14:33:59;;;;;;;1.88;0.80;;;;;;;;;;4992830;28;20396;-80
2022/07/01 14:36:24;;;;;;;1.77;0.98;;;;;;;;;;4976612;28;20423;-81
2022/07/01 14:38:49;;;;;;;3.35;1.00;;;;;;;;;;4992909;28;20112;-81
2022/07/01 14:41:15;;;;;;;4.38;1.05;;;;;;;;;;4995367;28;20470;-80
2022/07/01 14:43:40;;;;;;;2.70;1.10;;;;;;;;;;4996104;28;20034;-80
2022/07/01 14:46:08;;;;;;;1.25;0.88;;;;;;;;;;4961490;28;20077;-81
2022/07/01 14:48:35;;;;;;;3.58;0.93;;;;;;;;;;4979506;28;20401;-81
2022/07/01 14:51:01;;;;;;;1.52;0.90;;;;;;;;;;4999334;28;20035;-81
2022/07/01 14:53:26;;;;;;;4.15;0.93;;;;;;;;;;4982069;28;20034;-81
2022/07/01 14:55:52;;;;;;;0.93;0.80;;;;;;;;;;5002653;28;20034;-81
2022/07/01 14:58:17;;;;;;;2.60;1.00;;;;;;;;;;5018322;28;20030;-80